createdAt,value
2018-04-29T00:00:48.413Z,40.40
2018-04-29T00:03:18.443Z,40.40
2018-04-29T00:05:46.749Z,40.30
2018-04-29T00:08:16.921Z,40.70
2018-04-29T00:10:45.185Z,40.80
2018-04-29T00:13:13.427Z,41.10
2018-04-29T00:15:41.665Z,41.00
2018-04-29T00:18:10.964Z,41.50
2018-04-29T00:20:39.171Z,41.20
2018-04-29T00:23:09.187Z,41.40
2018-04-29T00:25:38.208Z,41.70
2018-04-29T00:28:06.455Z,41.70
2018-04-29T00:30:35.464Z,41.50
2018-04-29T00:33:04.486Z,41.60
2018-04-29T00:35:32.748Z,41.30
2018-04-29T00:38:01.744Z,41.90
2018-04-29T00:40:30.012Z,41.90
2018-04-29T00:42:59.012Z,42.00
2018-04-29T00:45:28.033Z,41.90
2018-04-29T00:47:56.281Z,42.00
2018-04-29T00:50:25.323Z,41.80
2018-04-29T00:52:54.309Z,42.10
2018-04-29T00:55:22.558Z,42.40
2018-04-29T00:57:50.877Z,42.20
2018-04-29T01:00:19.140Z,42.20
2018-04-29T01:02:47.399Z,42.50
2018-04-29T01:05:16.430Z,42.70
2018-04-29T01:07:44.662Z,42.70
2018-04-29T01:10:12.911Z,42.80
2018-04-29T01:12:41.160Z,42.90
2018-04-29T01:15:10.235Z,43.00
2018-04-29T01:17:38.681Z,43.30
2018-04-29T01:20:06.947Z,43.30
2018-04-29T01:22:35.175Z,43.20
2018-04-29T01:25:03.424Z,43.20
2018-04-29T01:27:31.672Z,43.20
2018-04-29T01:29:59.946Z,43.20
2018-04-29T01:32:28.195Z,43.50
2018-04-29T01:34:57.217Z,44.00
2018-04-29T01:37:25.474Z,43.30
2018-04-29T01:39:53.721Z,43.30
2018-04-29T01:42:21.960Z,43.00
2018-04-29T01:44:50.228Z,43.50
2018-04-29T01:47:19.238Z,43.10
2018-04-29T01:49:47.494Z,43.80
2018-04-29T01:52:15.765Z,43.40
2018-04-29T01:54:44.006Z,43.50
2018-04-29T01:57:12.311Z,44.00
2018-04-29T01:59:40.540Z,43.30
2018-04-29T02:02:08.784Z,43.30
2018-04-29T02:04:37.810Z,43.20
2018-04-29T02:07:06.809Z,43.70
2018-04-29T02:09:35.064Z,43.40
2018-04-29T02:12:03.296Z,43.40
2018-04-29T02:14:31.569Z,43.70
2018-04-29T02:16:59.806Z,44.00
2018-04-29T02:19:28.064Z,44.00
2018-04-29T02:21:56.356Z,43.80
2018-04-29T02:24:24.577Z,43.90
2018-04-29T02:26:52.851Z,44.10
2018-04-29T02:29:21.872Z,44.20
2018-04-29T02:31:50.112Z,44.20
2018-04-29T02:34:19.116Z,44.30
2018-04-29T02:36:48.160Z,44.60
2018-04-29T02:39:16.472Z,44.70
2018-04-29T02:41:44.691Z,44.90
2018-04-29T02:44:12.929Z,44.90
2018-04-29T02:46:41.206Z,44.90
2018-04-29T02:49:10.952Z,44.80
2018-04-29T02:51:39.976Z,44.50
2018-04-29T02:54:08.232Z,44.60
2018-04-29T02:56:37.224Z,44.80
2018-04-29T02:59:06.217Z,44.90
2018-04-29T03:01:35.236Z,44.70
2018-04-29T03:04:04.542Z,44.80
2018-04-29T03:06:33.524Z,45.10
2018-04-29T03:09:02.520Z,45.10
2018-04-29T03:11:31.541Z,44.80
2018-04-29T03:13:59.810Z,45.10
2018-04-29T03:16:28.060Z,44.90
2018-04-29T03:18:56.306Z,44.70
2018-04-29T03:21:24.537Z,45.10
2018-04-29T03:23:53.545Z,45.30
2018-04-29T03:26:21.799Z,45.40
2018-04-29T03:28:50.812Z,45.60
2018-04-29T03:31:19.812Z,45.50
2018-04-29T03:33:48.808Z,45.70
2018-04-29T03:36:17.836Z,45.70
2018-04-29T03:38:46.070Z,45.80
2018-04-29T03:41:15.085Z,45.60
2018-04-29T03:43:44.152Z,45.60
2018-04-29T03:46:12.359Z,45.80
2018-04-29T03:48:41.375Z,45.80
2018-04-29T03:51:09.631Z,45.90
2018-04-29T03:53:38.837Z,46.40
2018-04-29T03:56:07.876Z,46.20
2018-04-29T03:58:48.037Z,46.30
2018-04-29T04:01:28.320Z,46.40
2018-04-29T04:04:00.416Z,46.20
2018-04-29T04:06:29.397Z,46.20
2018-04-29T04:08:58.457Z,46.30
2018-04-29T04:11:27.417Z,46.50
2018-04-29T04:13:55.681Z,46.50
2018-04-29T04:16:23.947Z,46.50
2018-04-29T04:18:52.220Z,46.40
2018-04-29T04:21:20.453Z,46.20
2018-04-29T04:23:48.789Z,46.40
2018-04-29T04:26:17.696Z,46.40
2018-04-29T04:28:46.055Z,46.30
2018-04-29T04:31:14.286Z,46.40
2018-04-29T04:33:42.532Z,46.40
2018-04-29T04:36:10.847Z,46.50
2018-04-29T04:38:39.128Z,46.60
2018-04-29T04:41:07.356Z,46.30
2018-04-29T04:43:35.607Z,46.60
2018-04-29T04:46:04.850Z,46.60
2018-04-29T04:48:34.613Z,46.90
2018-04-29T04:51:02.872Z,47.00
2018-04-29T04:53:31.116Z,47.00
2018-04-29T04:55:59.357Z,47.10
2018-04-29T04:58:27.625Z,46.90
2018-04-29T05:00:55.878Z,46.90
2018-04-29T05:03:24.889Z,47.50
2018-04-29T05:05:53.146Z,47.50
2018-04-29T05:08:22.155Z,47.80
2018-04-29T05:10:51.270Z,47.90
2018-04-29T05:13:19.539Z,47.90
2018-04-29T05:15:49.547Z,47.90
2018-04-29T05:18:18.571Z,48.10
2018-04-29T05:20:46.836Z,47.90
2018-04-29T05:23:15.853Z,48.20
2018-04-29T05:25:44.096Z,48.20
2018-04-29T05:28:13.133Z,48.30
2018-04-29T05:30:41.396Z,48.10
2018-04-29T05:33:10.466Z,48.50
2018-04-29T05:35:38.688Z,48.40
2018-04-29T05:38:06.936Z,48.40
2018-04-29T05:40:35.197Z,48.30
2018-04-29T05:43:03.468Z,48.30
2018-04-29T05:45:31.713Z,48.00
2018-04-29T05:48:00.021Z,48.00
2018-04-29T05:50:28.240Z,48.10
2018-04-29T05:52:57.284Z,48.30
2018-04-29T05:55:25.506Z,48.00
2018-04-29T05:57:53.888Z,48.20
2018-04-29T06:00:22.135Z,48.30
2018-04-29T06:02:51.158Z,48.50
2018-04-29T06:05:19.411Z,48.30
2018-04-29T06:07:47.634Z,48.00
2018-04-29T06:10:16.666Z,47.90
2018-04-29T06:12:45.785Z,48.10
2018-04-29T06:15:15.065Z,48.10
2018-04-29T06:17:43.304Z,48.10
2018-04-29T06:20:11.564Z,48.10
2018-04-29T06:22:39.796Z,48.00
2018-04-29T06:25:08.065Z,48.30
2018-04-29T06:27:37.088Z,49.00
2018-04-29T06:30:06.136Z,48.30
2018-04-29T06:32:34.365Z,48.20
2018-04-29T06:35:02.613Z,48.10
2018-04-29T06:37:31.636Z,48.00
2018-04-29T06:40:00.808Z,48.10
2018-04-29T06:42:29.851Z,48.00
2018-04-29T06:44:58.109Z,47.90
2018-04-29T06:47:27.200Z,48.10
2018-04-29T06:49:55.405Z,47.80
2018-04-29T06:52:23.676Z,47.80
2018-04-29T06:54:51.928Z,47.60
2018-04-29T06:57:20.939Z,47.70
2018-04-29T06:59:49.992Z,47.80
2018-04-29T07:02:18.215Z,47.60
2018-04-29T07:04:47.402Z,47.80
2018-04-29T07:07:16.434Z,47.90
2018-04-29T07:09:44.699Z,47.80
2018-04-29T07:12:13.052Z,47.90
2018-04-29T07:14:41.289Z,48.00
2018-04-29T07:17:10.598Z,48.10
2018-04-29T07:19:38.917Z,48.10
2018-04-29T07:22:07.125Z,48.20
2018-04-29T07:24:36.352Z,47.90
2018-04-29T07:27:04.593Z,47.90
2018-04-29T07:29:33.615Z,47.50
2018-04-29T07:32:01.873Z,47.30
2018-04-29T07:34:30.907Z,48.10
2018-04-29T07:36:59.143Z,48.10
2018-04-29T07:39:28.166Z,49.00
2018-04-29T07:41:56.429Z,48.40
2018-04-29T07:44:24.656Z,48.30
2018-04-29T07:46:52.896Z,49.20
2018-04-29T07:49:21.898Z,49.20
2018-04-29T07:51:51.904Z,49.90
2018-04-29T07:54:20.920Z,50.10
2018-04-29T07:56:49.177Z,49.90
2018-04-29T07:59:18.197Z,50.60
2018-04-29T08:01:46.454Z,50.50
2018-04-29T08:04:14.703Z,51.10
2018-04-29T08:06:42.978Z,51.80
2018-04-29T08:09:11.273Z,51.30
2018-04-29T08:11:39.524Z,51.60
2018-04-29T08:14:07.782Z,52.00
2018-04-29T08:16:36.790Z,52.30
2018-04-29T08:19:05.123Z,52.40
2018-04-29T08:21:33.360Z,52.40
2018-04-29T08:24:01.629Z,52.50
2018-04-29T08:26:29.893Z,51.80
2018-04-29T08:28:58.969Z,51.10
2018-04-29T08:31:28.225Z,51.00
2018-04-29T08:33:57.427Z,51.20
2018-04-29T08:36:25.666Z,50.80
2018-04-29T08:38:54.668Z,50.50
2018-04-29T08:41:23.692Z,50.00
2018-04-29T08:43:52.886Z,50.10
2018-04-29T08:46:21.174Z,50.00
2018-04-29T08:48:50.203Z,49.80
2018-04-29T08:51:18.437Z,50.20
2018-04-29T08:53:47.466Z,50.50
2018-04-29T08:56:15.694Z,50.30
2018-04-29T08:58:43.968Z,50.00
2018-04-29T09:01:13.178Z,49.70
2018-04-29T09:03:42.329Z,49.80
2018-04-29T09:06:10.470Z,49.70
2018-04-29T09:08:39.493Z,49.70
2018-04-29T09:11:07.743Z,49.50
2018-04-29T09:13:36.043Z,49.30
2018-04-29T09:16:04.384Z,49.40
2018-04-29T09:18:32.657Z,49.50
2018-04-29T09:21:01.041Z,49.50
2018-04-29T09:23:29.293Z,49.50
2018-04-29T09:25:57.556Z,49.30
2018-04-29T09:28:25.885Z,49.70
2018-04-29T09:30:54.128Z,49.80
2018-04-29T09:33:22.385Z,49.50
2018-04-29T09:35:51.409Z,48.90
2018-04-29T09:38:19.651Z,49.10
2018-04-29T09:40:48.713Z,48.90
2018-04-29T09:43:16.950Z,49.00
2018-04-29T09:45:45.187Z,49.20
2018-04-29T09:48:14.198Z,49.70
2018-04-29T09:50:43.214Z,49.60
2018-04-29T09:53:11.461Z,49.70
2018-04-29T09:55:39.736Z,49.70
2018-04-29T09:58:07.980Z,49.60
2018-04-29T10:00:36.227Z,49.60
2018-04-29T10:03:07.201Z,49.80
2018-04-29T10:05:35.461Z,49.70
2018-04-29T10:08:03.724Z,49.40
2018-04-29T10:10:31.972Z,49.40
2018-04-29T10:13:00.235Z,49.70
2018-04-29T10:15:28.517Z,50.20
2018-04-29T10:17:56.753Z,49.20
2018-04-29T10:20:25.764Z,48.70
2018-04-29T10:22:54.025Z,48.50
2018-04-29T10:25:24.065Z,48.30
2018-04-29T10:27:52.320Z,48.20
2018-04-29T10:30:21.334Z,48.30
2018-04-29T10:32:49.621Z,48.50
2018-04-29T10:35:18.640Z,46.40
2018-04-29T10:37:46.891Z,46.40
2018-04-29T10:40:15.154Z,46.50
2018-04-29T10:42:44.168Z,46.80
2018-04-29T10:45:12.417Z,46.40
2018-04-29T10:47:41.681Z,46.50
2018-04-29T10:50:09.930Z,45.80
2018-04-29T10:52:38.276Z,45.40
2018-04-29T10:55:06.534Z,45.30
2018-04-29T10:57:34.761Z,45.60
2018-04-29T11:00:04.820Z,45.70
2018-04-29T11:02:33.092Z,45.70
2018-04-29T11:05:01.420Z,46.00
2018-04-29T11:07:30.665Z,44.90
2018-04-29T11:09:58.907Z,44.70
2018-04-29T11:12:27.161Z,44.20
2018-04-29T11:14:55.412Z,44.30
2018-04-29T11:17:23.660Z,44.20
2018-04-29T11:19:52.664Z,44.50
2018-04-29T11:22:21.738Z,44.70
2018-04-29T11:24:49.956Z,44.60
2018-04-29T11:27:18.969Z,44.80
2018-04-29T11:29:47.236Z,44.60
2018-04-29T11:32:16.270Z,44.40
2018-04-29T11:34:44.517Z,44.50
2018-04-29T11:37:12.781Z,44.30
2018-04-29T11:39:41.135Z,43.90
2018-04-29T11:42:09.386Z,43.50
2018-04-29T11:44:37.649Z,43.00
2018-04-29T11:47:05.917Z,43.20
2018-04-29T11:49:34.177Z,43.20
2018-04-29T11:52:03.202Z,43.60
2018-04-29T11:54:31.441Z,43.40
2018-04-29T11:56:59.764Z,44.10
2018-04-29T11:59:28.792Z,44.10
2018-04-29T12:01:57.060Z,44.30
2018-04-29T12:04:25.339Z,44.20
2018-04-29T12:06:53.621Z,44.30
2018-04-29T12:09:21.844Z,44.50
2018-04-29T12:11:50.112Z,44.50
2018-04-29T12:14:18.357Z,45.00
2018-04-29T12:16:46.600Z,44.50
2018-04-29T12:19:15.623Z,44.70
2018-04-29T12:21:43.870Z,44.70
2018-04-29T12:24:13.114Z,45.20
2018-04-29T12:26:41.341Z,45.50
2018-04-29T12:29:09.581Z,45.70
2018-04-29T12:31:37.840Z,45.80
2018-04-29T12:34:06.144Z,46.00
2018-04-29T12:36:34.416Z,46.20
2018-04-29T12:39:02.656Z,46.10
2018-04-29T12:41:30.938Z,45.60
2018-04-29T12:43:59.988Z,45.40
2018-04-29T12:46:28.323Z,45.40
2018-04-29T12:48:56.540Z,45.80
2018-04-29T12:51:24.820Z,45.90
2018-04-29T12:53:53.060Z,46.20
2018-04-29T12:56:22.091Z,46.30
2018-04-29T12:58:50.353Z,46.30
2018-04-29T13:01:19.470Z,46.20
2018-04-29T13:03:47.740Z,46.20
2018-04-29T13:06:15.991Z,46.20
2018-04-29T13:08:44.255Z,47.00
2018-04-29T13:11:12.576Z,47.40
2018-04-29T13:13:41.603Z,46.60
2018-04-29T13:16:09.889Z,46.60
2018-04-29T13:18:38.153Z,46.10
2018-04-29T13:21:06.409Z,45.90
2018-04-29T13:23:35.433Z,45.90
2018-04-29T13:26:03.705Z,45.80
2018-04-29T13:28:31.985Z,46.00
2018-04-29T13:31:00.236Z,46.70
2018-04-29T13:33:29.245Z,44.40
2018-04-29T13:35:58.263Z,44.40
2018-04-29T13:38:26.510Z,44.40
2018-04-29T13:40:55.559Z,43.70
2018-04-29T13:43:23.880Z,43.70
2018-04-29T13:45:52.193Z,44.60
2018-04-29T13:48:20.445Z,44.00
2018-04-29T13:50:48.719Z,43.50
2018-04-29T13:53:17.740Z,42.80
2018-04-29T13:55:46.768Z,42.90
2018-04-29T13:58:14.993Z,42.90
2018-04-29T14:00:43.265Z,42.80
2018-04-29T14:03:11.511Z,42.80
2018-04-29T14:05:39.773Z,43.00
2018-04-29T14:08:08.034Z,42.80
2018-04-29T14:10:37.120Z,42.40
2018-04-29T14:13:05.333Z,42.40
2018-04-29T14:15:34.344Z,41.80
2018-04-29T14:18:02.642Z,41.70
2018-04-29T14:20:30.906Z,42.30
2018-04-29T14:22:59.185Z,41.60
2018-04-29T14:25:27.475Z,41.60
2018-04-29T14:27:55.754Z,41.50
2018-04-29T14:30:24.049Z,41.60
2018-04-29T14:32:52.355Z,41.80
2018-04-29T14:35:20.598Z,41.60
2018-04-29T14:37:48.897Z,41.60
2018-04-29T14:40:17.160Z,41.90
2018-04-29T14:42:45.421Z,41.60
2018-04-29T14:45:13.689Z,40.70
2018-04-29T14:47:42.727Z,40.70
2018-04-29T14:50:11.007Z,40.60
2018-04-29T14:52:41.208Z,41.10
2018-04-29T14:55:09.463Z,41.20
2018-04-29T14:57:37.720Z,41.40
2018-04-29T15:00:05.970Z,41.50
2018-04-29T15:02:35.242Z,41.80
2018-04-29T15:05:03.507Z,41.60
2018-04-29T15:07:32.521Z,41.50
2018-04-29T15:10:00.773Z,41.50
2018-04-29T15:12:29.855Z,41.30
2018-04-29T15:14:58.057Z,40.60
2018-04-29T15:17:27.138Z,40.70
2018-04-29T15:19:55.557Z,40.60
2018-04-29T15:22:24.822Z,40.70
2018-04-29T15:24:53.053Z,40.60
2018-04-29T15:27:21.331Z,40.50
2018-04-29T15:29:49.612Z,40.60
2018-04-29T15:32:17.894Z,40.50
2018-04-29T15:34:46.161Z,40.50
2018-04-29T15:37:15.204Z,40.50
2018-04-29T15:39:43.519Z,40.50
2018-04-29T15:42:12.539Z,40.60
2018-04-29T15:44:42.579Z,40.70
2018-04-29T15:47:10.818Z,40.70
2018-04-29T15:49:39.883Z,41.40
2018-04-29T15:52:08.279Z,40.80
2018-04-29T15:54:38.148Z,40.80
2018-04-29T15:57:06.407Z,40.80
2018-04-29T15:59:35.437Z,40.80
2018-04-29T16:02:03.850Z,40.70
2018-04-29T16:04:32.117Z,40.60
2018-04-29T16:07:00.357Z,40.80
2018-04-29T16:09:28.628Z,40.90
2018-04-29T16:11:57.691Z,40.10
2018-04-29T16:14:25.944Z,40.10
2018-04-29T16:16:54.204Z,39.60
2018-04-29T16:19:22.513Z,39.40
2018-04-29T16:21:50.741Z,39.90
2018-04-29T16:24:19.772Z,39.60
2018-04-29T16:26:48.023Z,39.40
2018-04-29T16:29:16.294Z,39.30
2018-04-29T16:31:44.564Z,39.30
2018-04-29T16:34:12.841Z,39.30
2018-04-29T16:36:41.095Z,39.30
2018-04-29T16:39:09.356Z,39.00
2018-04-29T16:41:37.649Z,38.90
2018-04-29T16:44:05.922Z,39.00
2018-04-29T16:46:34.165Z,38.80
2018-04-29T16:49:03.300Z,38.60
2018-04-29T16:51:31.482Z,38.50
2018-04-29T16:53:59.728Z,38.30
2018-04-29T16:56:28.770Z,38.90
2018-04-29T16:58:57.013Z,38.10
2018-04-29T17:01:26.034Z,37.70
2018-04-29T17:03:54.297Z,37.60
2018-04-29T17:06:23.342Z,37.40
2018-04-29T17:08:51.577Z,37.40
2018-04-29T17:11:19.845Z,37.40
2018-04-29T17:13:48.256Z,37.80
2018-04-29T17:16:16.620Z,38.10
2018-04-29T17:18:45.700Z,38.40
2018-04-29T17:21:14.719Z,38.70
2018-04-29T17:23:42.991Z,38.70
2018-04-29T17:26:11.277Z,38.70
2018-04-29T17:28:39.522Z,38.90
2018-04-29T17:31:07.792Z,38.90
2018-04-29T17:33:36.053Z,39.20
2018-04-29T17:36:04.720Z,39.50
2018-04-29T17:38:33.111Z,39.70
2018-04-29T17:41:01.437Z,40.00
2018-04-29T17:43:30.469Z,40.40
2018-04-29T17:45:59.483Z,40.30
2018-04-29T17:48:27.725Z,40.40
2018-04-29T17:50:56.754Z,41.00
2018-04-29T17:53:25.065Z,40.90
2018-04-29T17:55:53.294Z,41.40
2018-04-29T17:58:22.291Z,42.10
2018-04-29T18:00:51.432Z,42.30
2018-04-29T18:03:19.688Z,42.20
2018-04-29T18:05:47.984Z,42.60
2018-04-29T18:08:16.236Z,42.90
2018-04-29T18:10:44.700Z,43.30
2018-04-29T18:13:12.989Z,43.30
2018-04-29T18:15:41.221Z,43.40
2018-04-29T18:18:09.499Z,43.70
2018-04-29T18:20:37.770Z,44.10
2018-04-29T18:23:06.040Z,44.50
2018-04-29T18:25:34.328Z,44.90
2018-04-29T18:28:02.586Z,44.90
2018-04-29T18:30:31.614Z,45.30
2018-04-29T18:32:59.886Z,45.20
2018-04-29T18:35:28.900Z,46.00
2018-04-29T18:37:57.181Z,46.20
2018-04-29T18:40:25.408Z,46.40
2018-04-29T18:42:54.316Z,46.70
2018-04-29T18:45:23.364Z,47.00
2018-04-29T18:47:51.596Z,46.90
2018-04-29T18:50:20.732Z,47.20
2018-04-29T18:52:49.045Z,47.20
2018-04-29T18:55:17.286Z,47.30
2018-04-29T18:57:46.285Z,47.30
2018-04-29T19:00:14.574Z,47.30
2018-04-29T19:02:42.945Z,47.30
2018-04-29T19:05:11.197Z,48.10
2018-04-29T19:07:40.228Z,47.50
2018-04-29T19:10:08.505Z,47.50
2018-04-29T19:12:36.750Z,47.60
2018-04-29T19:15:05.754Z,48.00
2018-04-29T19:17:34.759Z,48.10
2018-04-29T19:20:03.053Z,48.10
2018-04-29T19:22:31.311Z,48.10
2018-04-29T19:25:00.358Z,48.40
2018-04-29T19:27:28.629Z,48.30
2018-04-29T19:29:56.896Z,48.40
2018-04-29T19:32:25.149Z,48.30
2018-04-29T19:34:55.186Z,48.40
2018-04-29T19:37:24.171Z,48.50
2018-04-29T19:39:52.518Z,48.60
2018-04-29T19:42:20.783Z,48.60
2018-04-29T19:44:49.015Z,48.60
2018-04-29T19:47:17.325Z,48.60
2018-04-29T19:49:45.631Z,48.80
2018-04-29T19:52:13.874Z,48.90
2018-04-29T19:54:42.149Z,49.00
2018-04-29T19:57:11.144Z,48.90
2018-04-29T19:59:39.429Z,49.60
2018-04-29T20:02:07.690Z,48.90
2018-04-29T20:04:36.736Z,48.80
2018-04-29T20:07:04.981Z,48.80
2018-04-29T20:09:33.290Z,48.70
2018-04-29T20:12:01.536Z,48.70
2018-04-29T20:14:30.571Z,48.70
2018-04-29T20:16:58.796Z,48.70
2018-04-29T20:19:27.036Z,48.50
2018-04-29T20:21:55.294Z,48.60
2018-04-29T20:24:23.582Z,48.90
2018-04-29T20:26:51.852Z,49.10
2018-04-29T20:29:20.078Z,49.00
2018-04-29T20:31:49.866Z,49.20
2018-04-29T20:34:18.129Z,49.10
2018-04-29T20:36:46.397Z,49.10
2018-04-29T20:39:14.690Z,49.10
2018-04-29T20:41:43.688Z,49.10
2018-04-29T20:44:11.996Z,49.10
2018-04-29T20:46:40.216Z,49.10
2018-04-29T20:49:09.253Z,49.20
2018-04-29T20:51:37.534Z,49.20
2018-04-29T20:54:05.785Z,49.20
2018-04-29T20:56:34.811Z,49.00
2018-04-29T20:59:03.127Z,49.00
2018-04-29T21:01:32.192Z,48.50
2018-04-29T21:04:00.444Z,48.80
2018-04-29T21:06:28.705Z,48.80
2018-04-29T21:08:57.747Z,49.50
2018-04-29T21:11:26.032Z,48.80
2018-04-29T21:13:54.262Z,48.80
2018-04-29T21:16:22.628Z,48.80
2018-04-29T21:18:50.872Z,48.70
2018-04-29T21:21:19.132Z,48.60
2018-04-29T21:23:47.419Z,48.30
2018-04-29T21:26:15.659Z,49.20
2018-04-29T21:28:43.927Z,48.30
2018-04-29T21:31:12.168Z,48.40
2018-04-29T21:33:40.410Z,48.50
2018-04-29T21:36:09.499Z,48.80
2018-04-29T21:38:37.703Z,48.90
2018-04-29T21:41:06.905Z,48.80
2018-04-29T21:43:35.926Z,49.00
2018-04-29T21:46:04.189Z,48.90
2018-04-29T21:48:32.468Z,49.20
2018-04-29T21:51:00.719Z,49.30
2018-04-29T21:53:28.976Z,49.30
2018-04-29T21:55:57.241Z,49.40
2018-04-29T21:58:25.507Z,49.40
2018-04-29T22:00:53.737Z,49.40
2018-04-29T22:03:22.003Z,49.50
2018-04-29T22:05:50.251Z,49.80
2018-04-29T22:08:18.505Z,49.80
2018-04-29T22:10:46.808Z,50.20
2018-04-29T22:13:15.073Z,49.90
2018-04-29T22:15:43.380Z,50.10
2018-04-29T22:18:11.640Z,50.20
2018-04-29T22:20:39.903Z,50.20
2018-04-29T22:23:08.925Z,50.40
2018-04-29T22:25:37.189Z,50.30
2018-04-29T22:28:05.448Z,50.40
2018-04-29T22:30:34.487Z,50.70
2018-04-29T22:33:02.746Z,50.80
2018-04-29T22:35:31.837Z,50.90
2018-04-29T22:38:00.864Z,51.10
2018-04-29T22:40:29.108Z,51.20
2018-04-29T22:42:58.137Z,51.90
2018-04-29T22:45:26.398Z,51.40
2018-04-29T22:47:55.406Z,51.50
2018-04-29T22:50:24.667Z,51.60
2018-04-29T22:52:52.928Z,51.60
2018-04-29T22:55:21.168Z,51.60
2018-04-29T22:57:50.152Z,51.50
2018-04-29T23:00:19.186Z,51.40
2018-04-29T23:02:47.434Z,51.30
2018-04-29T23:05:15.719Z,51.30
2018-04-29T23:07:43.978Z,51.10
2018-04-29T23:10:12.235Z,51.30
2018-04-29T23:12:40.487Z,51.20
2018-04-29T23:15:08.745Z,51.50
2018-04-29T23:17:37.955Z,51.60
2018-04-29T23:20:06.962Z,51.90
2018-04-29T23:22:35.201Z,51.70
2018-04-29T23:25:04.797Z,52.00
2018-04-29T23:27:33.025Z,52.20
2018-04-29T23:30:01.316Z,52.20
2018-04-29T23:32:29.603Z,52.20
2018-04-29T23:34:57.871Z,53.00
2018-04-29T23:37:26.131Z,54.40
2018-04-29T23:39:55.160Z,55.80
2018-04-29T23:42:24.427Z,55.70
2018-04-29T23:44:52.703Z,55.70
2018-04-29T23:47:21.720Z,55.80
2018-04-29T23:49:50.021Z,55.90
2018-04-29T23:52:18.321Z,55.80
2018-04-29T23:54:46.564Z,55.80
2018-04-29T23:57:14.830Z,55.60
2018-04-29T23:59:43.106Z,55.90
